createdAt,value
2022-08-04T00:00:09.484Z,19.39
2022-08-04T00:01:36.482Z,19.42
2022-08-04T00:03:19.274Z,19.42
2022-08-04T00:04:29.611Z,19.45
2022-08-04T00:05:59.824Z,19.44
2022-08-04T00:07:44.135Z,19.37
2022-08-04T00:08:56.325Z,19.24
2022-08-04T00:10:03.096Z,19.28
2022-08-04T00:11:07.918Z,19.29
2022-08-04T00:12:17.846Z,19.20
2022-08-04T00:13:24.138Z,19.17
2022-08-04T00:14:26.299Z,19.18
2022-08-04T00:15:32.459Z,19.18
2022-08-04T00:16:38.391Z,19.18
2022-08-04T00:17:58.241Z,19.13
2022-08-04T00:19:12.428Z,19.15
2022-08-04T00:20:18.618Z,19.20
2022-08-04T00:21:24.664Z,19.15
2022-08-04T00:22:29.387Z,19.11
2022-08-04T00:24:11.557Z,19.06
2022-08-04T00:24:57.600Z,19.07
2022-08-04T00:25:59.175Z,19.09
2022-08-04T00:27:00.813Z,19.06
2022-08-04T00:28:02.266Z,19.04
2022-08-04T00:29:05.459Z,19.05
2022-08-04T00:30:07.786Z,19.04
2022-08-04T00:31:10.993Z,19.04
2022-08-04T00:32:13.443Z,19.03
2022-08-04T00:33:18.983Z,18.99
2022-08-04T00:34:21.406Z,18.94
2022-08-04T00:35:23.666Z,18.85
2022-08-04T00:36:26.763Z,18.89
2022-08-04T00:37:28.844Z,18.84
2022-08-04T00:38:30.444Z,18.86
2022-08-04T00:39:33.557Z,18.87
2022-08-04T00:41:00.020Z,18.84
2022-08-04T00:42:33.439Z,18.80
2022-08-04T00:43:44.215Z,18.79
2022-08-04T00:45:06.034Z,18.67
2022-08-04T00:46:44.848Z,18.60
2022-08-04T00:48:05.132Z,18.61
2022-08-04T00:49:33.125Z,18.61
2022-08-04T00:50:43.506Z,18.58
2022-08-04T00:52:32.037Z,18.58
2022-08-04T00:53:36.379Z,18.61
2022-08-04T00:55:14.425Z,18.50
2022-08-04T00:56:32.209Z,18.44
2022-08-04T00:57:55.749Z,18.42
2022-08-04T00:59:17.925Z,18.45
2022-08-04T01:00:20.108Z,18.48
2022-08-04T01:01:59.128Z,18.47
2022-08-04T01:03:09.378Z,18.45
2022-08-04T01:04:33.487Z,18.49
2022-08-04T01:06:06.153Z,18.56
2022-08-04T01:07:24.435Z,18.58
2022-08-04T01:08:25.845Z,18.52
2022-08-04T01:09:58.775Z,18.54
2022-08-04T01:11:24.699Z,18.45
2022-08-04T01:12:58.779Z,18.40
2022-08-04T01:14:14.692Z,18.38
2022-08-04T01:15:56.511Z,18.40
2022-08-04T01:17:17.461Z,18.36
2022-08-04T01:18:30.737Z,18.34
2022-08-04T01:19:53.805Z,18.36
2022-08-04T01:21:34.255Z,18.32
2022-08-04T01:22:44.468Z,18.31
2022-08-04T01:24:04.719Z,18.25
2022-08-04T01:25:42.129Z,18.26
2022-08-04T01:26:57.489Z,18.15
2022-08-04T01:28:20.776Z,18.11
2022-08-04T01:29:24.119Z,18.08
2022-08-04T01:30:32.467Z,18.11
2022-08-04T01:31:45.818Z,18.16
2022-08-04T01:33:04.184Z,18.08
2022-08-04T01:34:09.924Z,18.06
2022-08-04T01:35:47.900Z,17.97
2022-08-04T01:36:49.928Z,17.99
2022-08-04T01:38:20.117Z,17.94
2022-08-04T01:39:23.656Z,17.93
2022-08-04T01:40:27.192Z,17.93
2022-08-04T01:41:32.670Z,17.94
2022-08-04T01:42:37.118Z,17.92
2022-08-04T01:43:44.188Z,17.84
2022-08-04T01:44:47.887Z,17.81
2022-08-04T01:45:51.864Z,17.87
2022-08-04T01:46:53.580Z,17.82
2022-08-04T01:47:56.671Z,17.86
2022-08-04T01:48:59.367Z,17.87
2022-08-04T01:50:09.716Z,17.88
2022-08-04T01:51:11.623Z,17.81
2022-08-04T01:52:16.468Z,17.73
2022-08-04T01:53:20.269Z,17.69
2022-08-04T01:54:22.957Z,17.68
2022-08-04T01:55:54.469Z,17.66
2022-08-04T01:56:49.272Z,17.66
2022-08-04T01:57:52.490Z,17.70
2022-08-04T01:58:57.681Z,17.71
2022-08-04T01:59:59.755Z,17.75
2022-08-04T02:01:08.876Z,17.78
2022-08-04T02:02:11.551Z,17.78
2022-08-04T02:03:13.259Z,17.74
2022-08-04T02:04:18.719Z,17.69
2022-08-04T02:05:26.492Z,17.76
2022-08-04T02:06:54.020Z,17.81
2022-08-04T02:08:18.519Z,17.86
2022-08-04T02:09:32.648Z,17.84
2022-08-04T02:11:03.880Z,17.91
2022-08-04T02:12:16.119Z,17.92
2022-08-04T02:13:36.340Z,17.99
2022-08-04T02:14:56.048Z,17.98
2022-08-04T02:16:16.421Z,18.10
2022-08-04T02:17:32.473Z,18.10
2022-08-04T02:18:46.995Z,17.92
2022-08-04T02:20:04.380Z,17.77
2022-08-04T02:21:06.331Z,17.84
2022-08-04T02:22:10.131Z,17.90
2022-08-04T02:23:16.289Z,17.92
2022-08-04T02:24:24.698Z,17.95
2022-08-04T02:25:29.074Z,17.97
2022-08-04T02:26:33.367Z,17.97
2022-08-04T02:28:00.003Z,17.93
2022-08-04T02:29:16.926Z,17.94
2022-08-04T02:30:19.432Z,17.91
2022-08-04T02:31:28.921Z,17.91
2022-08-04T02:32:33.474Z,17.95
2022-08-04T02:33:39.537Z,17.96
2022-08-04T02:34:54.819Z,17.89
2022-08-04T02:36:02.423Z,17.78
2022-08-04T02:37:04.776Z,17.72
2022-08-04T02:38:32.629Z,17.69
2022-08-04T02:39:42.440Z,17.68
2022-08-04T02:40:54.364Z,17.58
2022-08-04T02:41:59.439Z,17.50
2022-08-04T02:43:04.139Z,17.50
2022-08-04T02:44:07.997Z,17.50
2022-08-04T02:45:11.907Z,17.47
2022-08-04T02:46:18.000Z,17.45
2022-08-04T02:47:21.834Z,17.45
2022-08-04T02:48:30.481Z,17.51
2022-08-04T02:49:37.771Z,17.56
2022-08-04T02:50:44.164Z,17.68
2022-08-04T02:51:50.408Z,17.55
2022-08-04T02:52:52.185Z,17.52
2022-08-04T02:53:56.758Z,17.39
2022-08-04T02:55:01.540Z,17.25
2022-08-04T02:56:04.449Z,17.21
2022-08-04T02:57:09.501Z,17.36
2022-08-04T02:58:12.665Z,17.45
2022-08-04T02:59:14.388Z,17.45
2022-08-04T03:00:16.436Z,17.45
2022-08-04T03:01:17.973Z,17.41
2022-08-04T03:02:34.445Z,17.42
2022-08-04T03:04:13.199Z,17.39
2022-08-04T03:05:51.874Z,17.40
2022-08-04T03:07:45.289Z,17.46
2022-08-04T03:09:08.532Z,17.41
2022-08-04T03:10:31.346Z,17.37
2022-08-04T03:12:00.615Z,17.32
2022-08-04T03:13:39.685Z,17.30
2022-08-04T03:15:17.598Z,17.24
2022-08-04T03:16:56.688Z,17.23
2022-08-04T03:18:23.492Z,17.16
2022-08-04T03:19:58.546Z,17.14
2022-08-04T03:21:17.965Z,17.17
2022-08-04T03:23:11.639Z,17.17
2022-08-04T03:24:43.005Z,17.11
2022-08-04T03:25:59.411Z,17.05
2022-08-04T03:27:44.539Z,17.00
2022-08-04T03:29:03.009Z,16.96
2022-08-04T03:30:24.604Z,17.05
2022-08-04T03:31:38.056Z,17.09
2022-08-04T03:33:23.128Z,17.08
2022-08-04T03:34:55.243Z,17.07
2022-08-04T03:36:27.284Z,17.05
2022-08-04T03:38:00.441Z,17.04
2022-08-04T03:39:29.564Z,17.04
2022-08-04T03:40:58.981Z,17.10
2022-08-04T03:42:26.064Z,17.08
2022-08-04T03:43:56.999Z,17.06
2022-08-04T03:45:38.575Z,17.03
2022-08-04T03:47:17.261Z,17.05
2022-08-04T03:48:39.333Z,17.08
2022-08-04T03:50:20.356Z,17.12
2022-08-04T03:51:37.944Z,17.07
2022-08-04T03:52:54.340Z,17.09
2022-08-04T03:54:14.477Z,17.09
2022-08-04T03:55:24.712Z,17.00
2022-08-04T03:57:03.678Z,16.99
2022-08-04T03:58:37.303Z,16.95
2022-08-04T03:59:48.860Z,16.89
2022-08-04T04:01:12.642Z,16.83
2022-08-04T04:03:07.324Z,16.72
2022-08-04T04:04:39.096Z,16.67
2022-08-04T04:06:02.226Z,16.69
2022-08-04T04:07:34.145Z,16.75
2022-08-04T04:09:02.795Z,16.80
2022-08-04T04:10:46.664Z,16.90
2022-08-04T04:12:12.380Z,16.92
2022-08-04T04:13:29.834Z,16.94
2022-08-04T04:14:41.944Z,16.94
2022-08-04T04:16:01.618Z,16.93
2022-08-04T04:17:52.348Z,16.86
2022-08-04T04:19:11.198Z,16.80
2022-08-04T04:20:31.130Z,16.86
2022-08-04T04:22:03.531Z,16.96
2022-08-04T04:23:30.547Z,17.05
2022-08-04T04:24:59.569Z,17.08
2022-08-04T04:26:07.231Z,17.09
2022-08-04T04:27:37.567Z,17.15
2022-08-04T04:28:54.714Z,17.23
2022-08-04T04:30:00.703Z,17.31
2022-08-04T04:31:53.499Z,17.35
2022-08-04T04:33:21.212Z,17.39
2022-08-04T04:34:46.217Z,17.51
2022-08-04T04:36:08.601Z,17.67
2022-08-04T04:37:28.335Z,17.75
2022-08-04T04:38:52.411Z,17.82
2022-08-04T04:40:03.737Z,17.82
2022-08-04T04:41:15.600Z,17.89
2022-08-04T04:42:20.137Z,17.97
2022-08-04T04:43:51.027Z,18.05
2022-08-04T04:45:08.428Z,18.09
2022-08-04T04:46:23.766Z,18.18
2022-08-04T04:47:43.094Z,18.25
2022-08-04T04:49:28.868Z,18.29
2022-08-04T04:50:56.509Z,18.33
2022-08-04T04:52:14.872Z,18.36
2022-08-04T04:53:27.530Z,18.34
2022-08-04T04:54:55.961Z,18.44
2022-08-04T04:56:06.196Z,18.47
2022-08-04T04:57:13.862Z,18.51
2022-08-04T04:58:18.483Z,18.55
2022-08-04T04:59:27.055Z,18.59
2022-08-04T05:00:50.087Z,18.64
2022-08-04T05:02:01.212Z,18.72
2022-08-04T05:03:59.411Z,18.77
2022-08-04T05:05:21.268Z,18.87
2022-08-04T05:06:43.640Z,18.92
2022-08-04T05:08:45.142Z,18.95
2022-08-04T05:10:06.508Z,19.07
2022-08-04T05:11:13.854Z,19.16
2022-08-04T05:14:32.428Z,19.24
2022-08-04T05:14:35.502Z,19.31
2022-08-04T05:15:35.068Z,19.31
2022-08-04T05:16:43.303Z,19.35
2022-08-04T05:17:53.075Z,19.38
2022-08-04T05:19:20.733Z,19.44
2022-08-04T05:20:27.578Z,19.47
2022-08-04T05:22:00.141Z,19.50
2022-08-04T05:23:24.893Z,19.62
2022-08-04T05:24:28.255Z,19.71
2022-08-04T05:25:37.419Z,19.81
2022-08-04T05:26:46.935Z,19.90
2022-08-04T05:27:57.657Z,19.99
2022-08-04T05:29:06.284Z,20.02
2022-08-04T05:30:09.607Z,20.18
2022-08-04T05:31:16.021Z,20.34
2022-08-04T05:32:23.164Z,20.42
2022-08-04T05:33:47.188Z,20.65
2022-08-04T05:35:03.087Z,21.04
2022-08-04T05:36:21.678Z,21.27
2022-08-04T05:37:28.332Z,21.44
2022-08-04T05:38:42.465Z,21.73
2022-08-04T05:39:47.775Z,22.03
2022-08-04T05:40:50.833Z,22.33
2022-08-04T05:41:55.201Z,22.55
2022-08-04T05:43:00.920Z,22.62
2022-08-04T05:44:03.621Z,22.64
2022-08-04T05:45:08.149Z,22.57
2022-08-04T05:46:11.937Z,22.65
2022-08-04T05:47:15.372Z,22.83
2022-08-04T05:48:17.375Z,23.07
2022-08-04T05:49:22.158Z,23.26
2022-08-04T05:50:25.372Z,23.39
2022-08-04T05:51:28.815Z,23.54
2022-08-04T05:52:32.236Z,23.53
2022-08-04T05:53:34.603Z,23.51
2022-08-04T05:54:37.845Z,23.55
2022-08-04T05:55:48.822Z,23.54
2022-08-04T05:57:04.344Z,23.58
2022-08-04T05:58:06.576Z,23.78
2022-08-04T05:59:10.511Z,23.94
2022-08-04T06:00:39.819Z,23.95
2022-08-04T06:01:54.998Z,23.95
2022-08-04T06:02:58.884Z,24.06
2022-08-04T06:04:01.867Z,24.16
2022-08-04T06:05:05.736Z,24.20
2022-08-04T06:06:08.648Z,24.24
2022-08-04T06:07:10.200Z,24.24
2022-08-04T06:08:13.744Z,24.23
2022-08-04T06:09:15.496Z,24.24
2022-08-04T06:10:17.199Z,24.16
2022-08-04T06:11:19.485Z,24.14
2022-08-04T06:12:25.601Z,24.17
2022-08-04T06:13:49.497Z,24.22
2022-08-04T06:14:54.389Z,24.27
2022-08-04T06:16:02.501Z,24.28
2022-08-04T06:17:05.993Z,24.27
2022-08-04T06:18:33.752Z,24.29
2022-08-04T06:20:01.351Z,24.38
2022-08-04T06:21:16.903Z,24.40
2022-08-04T06:22:19.683Z,24.45
2022-08-04T06:23:23.199Z,24.48
2022-08-04T06:24:28.021Z,24.51
2022-08-04T06:25:36.937Z,24.51
2022-08-04T06:26:39.293Z,24.57
2022-08-04T06:27:41.548Z,24.55
2022-08-04T06:28:43.498Z,24.58
2022-08-04T06:29:51.642Z,24.64
2022-08-04T06:30:54.528Z,24.73
2022-08-04T06:32:28.672Z,24.83
2022-08-04T06:33:21.319Z,24.78
2022-08-04T06:34:23.967Z,24.69
2022-08-04T06:35:26.830Z,24.73
2022-08-04T06:36:31.166Z,24.84
2022-08-04T06:37:42.266Z,24.92
2022-08-04T06:38:46.144Z,24.89
2022-08-04T06:39:48.296Z,24.81
2022-08-04T06:40:50.016Z,24.95
2022-08-04T06:42:22.196Z,25.06
2022-08-04T06:43:21.117Z,25.14
2022-08-04T06:44:26.317Z,25.22
2022-08-04T06:45:28.648Z,25.26
2022-08-04T06:46:31.862Z,25.05
2022-08-04T06:47:35.383Z,24.93
2022-08-04T06:48:37.506Z,24.91
2022-08-04T06:49:55.058Z,24.95
2022-08-04T06:51:32.679Z,24.75
2022-08-04T06:52:24.497Z,24.70
2022-08-04T06:53:26.555Z,24.86
2022-08-04T06:54:28.068Z,24.90
2022-08-04T06:55:31.298Z,24.86
2022-08-04T06:56:34.916Z,24.92
2022-08-04T06:57:36.860Z,25.06
2022-08-04T06:58:39.758Z,25.24
2022-08-04T06:59:44.365Z,25.38
2022-08-04T07:00:47.799Z,25.43
2022-08-04T07:01:51.029Z,25.50
2022-08-04T07:02:53.541Z,25.61
2022-08-04T07:03:55.957Z,25.71
2022-08-04T07:04:57.768Z,25.74
2022-08-04T07:06:05.745Z,25.65
2022-08-04T07:07:07.938Z,25.74
2022-08-04T07:08:13.484Z,25.86
2022-08-04T07:09:15.238Z,25.97
2022-08-04T07:10:20.311Z,26.13
2022-08-04T07:11:25.472Z,26.23
2022-08-04T07:12:28.363Z,26.34
2022-08-04T07:13:31.899Z,26.42
2022-08-04T07:14:34.676Z,26.41
2022-08-04T07:15:38.917Z,26.43
2022-08-04T07:16:42.260Z,26.48
2022-08-04T07:17:45.168Z,26.57
2022-08-04T07:18:48.972Z,26.62
2022-08-04T07:19:50.562Z,26.54
2022-08-04T07:20:52.743Z,26.48
2022-08-04T07:22:16.933Z,26.53
2022-08-04T07:23:23.982Z,26.56
2022-08-04T07:24:36.931Z,26.67
2022-08-04T07:26:00.238Z,26.75
2022-08-04T07:27:01.117Z,26.86
2022-08-04T07:28:02.714Z,26.90
2022-08-04T07:29:04.575Z,26.94
2022-08-04T07:30:07.253Z,27.00
2022-08-04T07:31:32.007Z,26.94
2022-08-04T07:32:40.792Z,26.87
2022-08-04T07:33:43.940Z,26.97
2022-08-04T07:34:49.732Z,26.94
2022-08-04T07:36:09.650Z,26.92
2022-08-04T07:37:12.496Z,26.90
2022-08-04T07:38:14.030Z,27.00
2022-08-04T07:39:27.170Z,27.04
2022-08-04T07:40:30.664Z,27.17
2022-08-04T07:41:36.191Z,27.27
2022-08-04T07:42:38.255Z,27.40
2022-08-04T07:43:40.105Z,27.55
2022-08-04T07:44:41.623Z,27.63
2022-08-04T07:45:44.596Z,27.76
2022-08-04T07:46:48.088Z,27.86
2022-08-04T07:48:04.214Z,27.95
2022-08-04T07:49:07.853Z,28.03
2022-08-04T07:50:10.008Z,28.10
2022-08-04T07:51:11.855Z,28.02
2022-08-04T07:52:13.805Z,28.01
2022-08-04T07:53:54.577Z,28.05
2022-08-04T07:54:39.608Z,27.88
2022-08-04T07:55:41.171Z,27.84
2022-08-04T07:56:43.709Z,27.89
2022-08-04T07:57:45.914Z,28.03
2022-08-04T07:58:47.571Z,28.14
2022-08-04T07:59:51.353Z,28.24
2022-08-04T08:00:52.945Z,28.29
2022-08-04T08:01:58.351Z,28.35
2022-08-04T08:03:01.505Z,28.45
2022-08-04T08:04:06.415Z,28.39
2022-08-04T08:05:10.580Z,28.38
2022-08-04T08:06:18.163Z,28.45
2022-08-04T08:07:34.248Z,28.56
2022-08-04T08:08:38.877Z,28.60
2022-08-04T08:09:40.413Z,28.65
2022-08-04T08:10:47.047Z,28.75
2022-08-04T08:12:36.576Z,28.81
2022-08-04T08:13:12.119Z,28.91
2022-08-04T08:14:14.479Z,28.97
2022-08-04T08:15:16.237Z,29.04
2022-08-04T08:16:18.616Z,29.13
2022-08-04T08:17:20.319Z,29.12
2022-08-04T08:18:22.019Z,29.20
2022-08-04T08:19:23.496Z,29.26
2022-08-04T08:20:28.984Z,29.32
2022-08-04T08:21:31.650Z,29.38
2022-08-04T08:22:33.428Z,29.38
2022-08-04T08:23:36.319Z,29.39
2022-08-04T08:24:38.048Z,29.44
2022-08-04T08:25:39.694Z,29.53
2022-08-04T08:26:41.830Z,29.52
2022-08-04T08:27:56.012Z,29.53
2022-08-04T08:28:58.299Z,29.52
2022-08-04T08:29:59.891Z,29.50
2022-08-04T08:31:01.423Z,29.40
2022-08-04T08:32:11.519Z,29.26
2022-08-04T08:33:15.687Z,29.07
2022-08-04T08:34:27.437Z,29.12
2022-08-04T08:35:39.819Z,29.29
2022-08-04T08:37:09.879Z,29.49
2022-08-04T08:38:15.756Z,29.55
2022-08-04T08:39:25.394Z,29.51
2022-08-04T08:40:41.054Z,29.37
2022-08-04T08:42:14.964Z,29.43
2022-08-04T08:44:03.780Z,29.57
2022-08-04T08:45:21.260Z,29.77
2022-08-04T08:46:48.830Z,29.84
2022-08-04T08:48:10.019Z,29.94
2022-08-04T08:50:01.758Z,30.00
2022-08-04T08:51:17.271Z,30.14
2022-08-04T08:53:02.635Z,30.28
2022-08-04T08:54:38.756Z,30.35
2022-08-04T08:55:58.572Z,30.44
2022-08-04T08:57:20.048Z,30.53
2022-08-04T08:58:39.694Z,30.57
2022-08-04T09:00:16.260Z,30.63
2022-08-04T09:01:56.088Z,30.65
2022-08-04T09:03:10.748Z,30.75
2022-08-04T09:04:45.972Z,30.84
2022-08-04T09:06:05.044Z,30.93
2022-08-04T09:07:46.421Z,30.99
2022-08-04T09:09:09.889Z,31.02
2022-08-04T09:10:24.955Z,31.05
2022-08-04T09:11:36.633Z,31.10
2022-08-04T09:12:56.085Z,31.16
2022-08-04T09:14:05.473Z,31.12
2022-08-04T09:15:15.639Z,31.12
2022-08-04T09:16:36.879Z,31.05
2022-08-04T09:17:52.137Z,31.11
2022-08-04T09:19:04.370Z,31.06
2022-08-04T09:20:28.736Z,31.11
2022-08-04T09:22:12.815Z,31.22
2022-08-04T09:23:42.506Z,31.39
2022-08-04T09:24:59.161Z,31.44
2022-08-04T09:26:03.839Z,31.45
2022-08-04T09:27:30.415Z,31.46
2022-08-04T09:28:54.165Z,31.52
2022-08-04T09:30:07.899Z,31.50
2022-08-04T09:31:13.572Z,31.55
2022-08-04T09:32:41.572Z,31.40
2022-08-04T09:34:06.168Z,31.40
2022-08-04T09:35:22.162Z,31.49
2022-08-04T09:36:40.034Z,31.49
2022-08-04T09:37:54.826Z,31.52
2022-08-04T09:39:28.055Z,31.54
2022-08-04T09:40:57.907Z,31.39
2022-08-04T09:42:18.722Z,31.30
2022-08-04T09:43:59.285Z,31.16
2022-08-04T09:45:26.957Z,31.39
2022-08-04T09:46:53.523Z,31.45
2022-08-04T09:48:05.102Z,31.56
2022-08-04T09:49:47.501Z,31.54
2022-08-04T09:50:56.461Z,31.62
2022-08-04T09:52:16.770Z,31.73
2022-08-04T09:53:35.637Z,31.79
2022-08-04T09:54:55.930Z,31.85
2022-08-04T09:56:09.724Z,31.88
2022-08-04T09:57:24.468Z,31.86
2022-08-04T09:58:44.343Z,31.82
2022-08-04T09:59:57.187Z,31.84
2022-08-04T10:01:08.772Z,31.92
2022-08-04T10:02:15.531Z,32.03
2022-08-04T10:03:20.591Z,32.09
2022-08-04T10:04:23.800Z,32.11
2022-08-04T10:05:28.498Z,32.19
2022-08-04T10:06:51.052Z,32.09
2022-08-04T10:08:24.474Z,31.86
2022-08-04T10:09:43.306Z,31.80
2022-08-04T10:11:07.471Z,31.88
2022-08-04T10:12:24.292Z,31.92
2022-08-04T10:13:37.919Z,32.03
2022-08-04T10:14:52.452Z,32.02
2022-08-04T10:16:31.470Z,32.13
2022-08-04T10:18:03.680Z,32.19
2022-08-04T10:19:27.642Z,32.13
2022-08-04T10:21:15.399Z,32.12
2022-08-04T10:22:49.743Z,32.21
2022-08-04T10:24:38.883Z,32.12
2022-08-04T10:26:07.240Z,32.13
2022-08-04T10:27:16.252Z,32.12
2022-08-04T10:28:21.457Z,32.03
2022-08-04T10:29:41.016Z,31.83
2022-08-04T10:30:49.699Z,31.78
2022-08-04T10:32:29.333Z,31.60
2022-08-04T10:33:44.992Z,31.54
2022-08-04T10:35:07.849Z,31.73
2022-08-04T10:36:11.453Z,31.84
2022-08-04T10:37:18.796Z,31.91
2022-08-04T10:38:22.934Z,31.99
2022-08-04T10:39:52.354Z,32.10
2022-08-04T10:41:11.290Z,32.14
2022-08-04T10:42:29.726Z,32.22
2022-08-04T10:43:51.737Z,32.24
2022-08-04T10:45:18.256Z,32.17
2022-08-04T10:46:37.435Z,32.17
2022-08-04T10:47:53.186Z,32.19
2022-08-04T10:49:03.975Z,32.24
2022-08-04T10:50:10.124Z,32.12
2022-08-04T10:51:29.884Z,32.00
2022-08-04T10:52:35.883Z,31.77
2022-08-04T10:53:39.336Z,31.71
2022-08-04T10:54:57.899Z,31.71
2022-08-04T10:56:09.197Z,31.80
2022-08-04T10:57:46.111Z,31.82
2022-08-04T10:58:54.416Z,31.80
2022-08-04T11:00:03.296Z,31.80
2022-08-04T11:01:59.671Z,31.81
2022-08-04T11:02:43.229Z,31.83
2022-08-04T11:03:51.917Z,31.87
2022-08-04T11:05:04.857Z,31.88
2022-08-04T11:06:06.784Z,31.98
2022-08-04T11:07:08.740Z,32.09
2022-08-04T11:08:22.251Z,32.25
2022-08-04T11:09:23.893Z,32.24
2022-08-04T11:10:29.965Z,32.18
2022-08-04T11:11:56.984Z,32.15
2022-08-04T11:13:04.785Z,32.28
2022-08-04T11:14:11.460Z,32.45
2022-08-04T11:15:20.803Z,32.57
2022-08-04T11:16:36.392Z,32.60
2022-08-04T11:17:46.932Z,32.72
2022-08-04T11:19:06.991Z,32.66
2022-08-04T11:20:39.628Z,32.46
2022-08-04T11:21:46.528Z,32.49
2022-08-04T11:23:02.769Z,32.30
2022-08-04T11:24:16.021Z,32.13
2022-08-04T11:25:23.630Z,32.10
2022-08-04T11:26:37.991Z,32.14
2022-08-04T11:28:16.519Z,32.16
2022-08-04T11:29:27.251Z,32.24
2022-08-04T11:30:59.380Z,32.26
2022-08-04T11:32:03.816Z,32.39
2022-08-04T11:33:17.904Z,32.45
2022-08-04T11:34:27.091Z,32.52
2022-08-04T11:35:38.664Z,32.66
2022-08-04T11:36:47.777Z,32.74
2022-08-04T11:37:57.845Z,32.71
2022-08-04T11:39:07.182Z,32.60
2022-08-04T11:40:24.056Z,32.41
2022-08-04T11:41:46.978Z,32.41
2022-08-04T11:42:56.536Z,32.29
2022-08-04T11:44:02.543Z,32.25
2022-08-04T11:45:15.327Z,32.21
2022-08-04T11:46:35.733Z,32.15
2022-08-04T11:48:00.105Z,32.23
2022-08-04T11:49:08.188Z,32.41
2022-08-04T11:50:29.031Z,32.56
2022-08-04T11:51:33.155Z,32.64
2022-08-04T11:52:38.021Z,32.79
2022-08-04T11:53:40.266Z,32.80
2022-08-04T11:54:42.636Z,32.82
2022-08-04T11:56:07.023Z,32.91
2022-08-04T11:57:10.958Z,33.03
2022-08-04T11:58:12.562Z,33.07
2022-08-04T11:59:14.782Z,32.96
2022-08-04T12:00:18.294Z,33.04
2022-08-04T12:01:28.492Z,32.98
2022-08-04T12:02:50.733Z,32.89
2022-08-04T12:04:16.903Z,32.84
2022-08-04T12:05:36.561Z,32.70
2022-08-04T12:06:56.974Z,32.64
2022-08-04T12:08:32.707Z,32.56
2022-08-04T12:10:09.532Z,32.34
2022-08-04T12:11:29.879Z,32.29
2022-08-04T12:12:41.835Z,32.18
2022-08-04T12:13:58.740Z,32.24
2022-08-04T12:15:20.238Z,32.24
2022-08-04T12:16:32.411Z,32.16
2022-08-04T12:17:53.192Z,32.13
2022-08-04T12:18:58.454Z,32.19
2022-08-04T12:20:38.047Z,32.38
2022-08-04T12:21:37.588Z,32.44
2022-08-04T12:22:45.905Z,32.42
2022-08-04T12:23:50.672Z,32.34
2022-08-04T12:25:08.685Z,32.52
2022-08-04T12:26:31.475Z,32.69
2022-08-04T12:27:42.196Z,32.79
2022-08-04T12:29:09.177Z,32.91
2022-08-04T12:30:59.316Z,32.99
2022-08-04T12:31:40.430Z,32.91
2022-08-04T12:32:53.736Z,32.91
2022-08-04T12:34:09.095Z,32.84
2022-08-04T12:35:23.428Z,32.86
2022-08-04T12:36:33.348Z,32.92
2022-08-04T12:37:55.446Z,32.99
2022-08-04T12:39:07.283Z,32.99
2022-08-04T12:40:27.514Z,33.03
2022-08-04T12:41:40.297Z,32.98
2022-08-04T12:42:56.101Z,32.88
2022-08-04T12:44:09.913Z,32.90
2022-08-04T12:45:31.309Z,32.95
2022-08-04T12:46:33.948Z,33.03
2022-08-04T12:47:36.965Z,32.99
2022-08-04T12:48:39.979Z,32.90
2022-08-04T12:49:59.134Z,32.91
2022-08-04T12:51:03.608Z,32.98
2022-08-04T12:52:14.518Z,32.99
2022-08-04T12:53:31.402Z,32.98
2022-08-04T12:54:35.498Z,33.07
2022-08-04T12:55:38.483Z,33.04
2022-08-04T12:56:41.803Z,33.11
2022-08-04T12:57:44.255Z,33.20
2022-08-04T12:58:49.062Z,33.25
2022-08-04T12:59:57.018Z,33.32
2022-08-04T13:02:08.529Z,32.99
2022-08-04T13:02:44.789Z,33.07
2022-08-04T13:03:56.181Z,33.12
2022-08-04T13:05:04.292Z,33.22
2022-08-04T13:06:08.568Z,33.07
2022-08-04T13:07:15.433Z,33.08
2022-08-04T13:08:20.379Z,33.16
2022-08-04T13:09:25.525Z,33.16
2022-08-04T13:10:30.512Z,33.12
2022-08-04T13:11:38.999Z,33.18
2022-08-04T13:12:44.556Z,33.22
2022-08-04T13:13:47.117Z,33.22
2022-08-04T13:14:51.773Z,33.28
2022-08-04T13:15:57.745Z,33.32
2022-08-04T13:17:00.374Z,33.30
2022-08-04T13:18:04.333Z,33.36
2022-08-04T13:19:08.809Z,33.43
2022-08-04T13:20:10.616Z,33.42
2022-08-04T13:21:20.523Z,33.43
2022-08-04T13:22:29.800Z,33.37
2022-08-04T13:24:09.412Z,33.24
2022-08-04T13:25:17.959Z,33.18
2022-08-04T13:26:42.431Z,33.14
2022-08-04T13:27:42.981Z,33.17
2022-08-04T13:28:47.688Z,33.26
2022-08-04T13:29:58.889Z,33.08
2022-08-04T13:31:07.764Z,32.89
2022-08-04T13:32:10.691Z,32.83
2022-08-04T13:33:12.988Z,32.79
2022-08-04T13:34:18.792Z,32.56
2022-08-04T13:35:21.559Z,32.57
2022-08-04T13:36:26.579Z,32.68
2022-08-04T13:37:35.814Z,32.76
2022-08-04T13:38:45.055Z,32.77
2022-08-04T13:39:55.133Z,32.84
2022-08-04T13:41:02.086Z,32.86
2022-08-04T13:42:11.791Z,32.96
2022-08-04T13:44:16.175Z,33.08
2022-08-04T13:44:58.538Z,33.16
2022-08-04T13:46:06.652Z,33.18
2022-08-04T13:47:14.891Z,33.28
2022-08-04T13:48:32.346Z,33.31
2022-08-04T13:49:42.662Z,33.41
2022-08-04T13:50:58.091Z,33.25
2022-08-04T13:52:02.100Z,33.28
2022-08-04T13:53:12.163Z,33.22
2022-08-04T13:54:14.006Z,33.20
2022-08-04T13:55:21.964Z,33.17
2022-08-04T13:56:30.457Z,33.14
2022-08-04T13:57:36.350Z,33.11
2022-08-04T13:58:45.986Z,33.18
2022-08-04T13:59:53.359Z,33.29
2022-08-04T14:00:59.825Z,33.34
2022-08-04T14:02:06.000Z,33.39
2022-08-04T14:03:19.201Z,33.45
2022-08-04T14:04:29.261Z,33.55
2022-08-04T14:05:59.658Z,33.53
2022-08-04T14:06:59.044Z,33.43
2022-08-04T14:08:18.583Z,33.43
2022-08-04T14:09:22.744Z,33.24
2022-08-04T14:10:38.816Z,33.12
2022-08-04T14:12:09.340Z,33.18
2022-08-04T14:13:06.243Z,33.28
2022-08-04T14:14:30.332Z,33.29
2022-08-04T14:16:03.040Z,33.21
2022-08-04T14:17:18.020Z,33.13
2022-08-04T14:18:27.551Z,33.02
2022-08-04T14:19:47.787Z,32.95
2022-08-04T14:21:13.573Z,32.92
2022-08-04T14:22:27.313Z,32.84
2022-08-04T14:23:37.483Z,32.91
2022-08-04T14:24:55.747Z,33.00
2022-08-04T14:25:57.240Z,32.98
2022-08-04T14:26:59.900Z,33.04
2022-08-04T14:28:01.421Z,33.12
2022-08-04T14:29:28.249Z,33.03
2022-08-04T14:30:36.349Z,32.97
2022-08-04T14:31:37.971Z,32.79
2022-08-04T14:34:04.050Z,32.65
2022-08-04T14:34:39.247Z,32.64
2022-08-04T14:35:50.284Z,32.62
2022-08-04T14:37:17.662Z,32.70
2022-08-04T14:38:14.557Z,32.69
2022-08-04T14:39:16.083Z,32.57
2022-08-04T14:40:31.969Z,32.69
2022-08-04T14:41:50.390Z,32.73
2022-08-04T14:42:54.272Z,32.80
2022-08-04T14:43:59.933Z,32.73
2022-08-04T14:45:04.224Z,32.70
2022-08-04T14:46:05.815Z,32.80
2022-08-04T14:47:13.371Z,32.94
2022-08-04T14:48:16.333Z,33.01
2022-08-04T14:49:18.002Z,33.11
2022-08-04T14:50:19.937Z,33.18
2022-08-04T14:51:26.251Z,33.19
2022-08-04T14:52:38.643Z,33.18
2022-08-04T14:53:40.359Z,33.17
2022-08-04T14:54:41.928Z,33.06
2022-08-04T14:55:47.294Z,33.01
2022-08-04T14:56:53.299Z,32.94
2022-08-04T14:58:33.800Z,32.88
2022-08-04T14:59:16.184Z,32.92
2022-08-04T15:00:35.480Z,32.95
2022-08-04T15:01:42.911Z,33.04
2022-08-04T15:02:44.532Z,33.01
2022-08-04T15:03:48.310Z,33.05
2022-08-04T15:04:52.788Z,33.08
2022-08-04T15:06:02.943Z,33.15
2022-08-04T15:07:08.937Z,33.17
2022-08-04T15:08:12.569Z,33.16
2022-08-04T15:09:14.269Z,33.19
2022-08-04T15:10:16.107Z,33.24
2022-08-04T15:11:22.736Z,33.12
2022-08-04T15:12:25.776Z,33.07
2022-08-04T15:13:27.355Z,32.92
2022-08-04T15:14:37.134Z,32.90
2022-08-04T15:15:41.082Z,32.90
2022-08-04T15:16:54.035Z,32.94
2022-08-04T15:17:56.547Z,32.90
2022-08-04T15:18:59.993Z,32.93
2022-08-04T15:20:02.825Z,32.98
2022-08-04T15:21:05.571Z,32.96
2022-08-04T15:22:07.074Z,33.03
2022-08-04T15:23:18.997Z,33.03
2022-08-04T15:24:20.502Z,33.06
2022-08-04T15:25:22.118Z,33.12
2022-08-04T15:26:41.660Z,33.12
2022-08-04T15:27:48.077Z,33.10
2022-08-04T15:28:54.555Z,33.16
2022-08-04T15:30:01.952Z,33.21
2022-08-04T15:31:11.737Z,33.25
2022-08-04T15:32:34.074Z,33.19
2022-08-04T15:33:39.777Z,33.13
2022-08-04T15:34:52.123Z,33.08
2022-08-04T15:36:10.216Z,33.07
2022-08-04T15:37:15.856Z,33.13
2022-08-04T15:38:37.480Z,33.15
2022-08-04T15:39:51.402Z,33.04
2022-08-04T15:41:31.232Z,32.89
2022-08-04T15:42:42.089Z,32.81
2022-08-04T15:44:13.967Z,32.77
2022-08-04T15:46:41.701Z,32.71
2022-08-04T15:46:47.573Z,32.77
2022-08-04T15:48:03.986Z,32.85